createdAt,value
2018-08-31T00:01:40.197Z,16.22
2018-08-31T00:04:52.176Z,16.10
2018-08-31T00:07:38.467Z,15.91
2018-08-31T00:12:50.721Z,15.66
2018-08-31T00:15:20.046Z,15.36
2018-08-31T00:17:49.304Z,15.45
2018-08-31T00:20:19.046Z,15.64
2018-08-31T00:22:48.432Z,15.77
2018-08-31T00:26:06.585Z,15.77
2018-08-31T00:29:08.238Z,15.59
2018-08-31T00:34:12.802Z,15.40
2018-08-31T00:38:09.717Z,15.10
2018-08-31T00:41:31.630Z,15.14
2018-08-31T00:46:22.023Z,15.15
2018-08-31T00:48:51.321Z,15.18
2018-08-31T00:51:20.769Z,15.28
2018-08-31T00:53:50.089Z,15.42
2018-08-31T00:56:19.463Z,15.39
2018-08-31T00:58:48.828Z,15.38
2018-08-31T01:01:18.284Z,15.30
2018-08-31T01:03:47.641Z,15.40
2018-08-31T01:06:16.949Z,15.31
2018-08-31T01:08:46.353Z,15.25
2018-08-31T01:11:15.716Z,15.23
2018-08-31T01:13:45.088Z,15.18
2018-08-31T01:16:14.406Z,15.21
2018-08-31T01:18:43.751Z,15.29
2018-08-31T01:21:13.054Z,15.06
2018-08-31T01:23:42.501Z,15.27
2018-08-31T01:26:12.134Z,15.24
2018-08-31T01:28:41.470Z,15.06
2018-08-31T01:31:10.817Z,15.24
2018-08-31T01:33:40.226Z,15.35
2018-08-31T01:36:09.592Z,15.39
2018-08-31T01:38:38.883Z,15.26
2018-08-31T01:41:08.429Z,15.26
2018-08-31T01:43:37.712Z,15.29
2018-08-31T01:46:06.980Z,15.23
2018-08-31T01:48:36.386Z,15.26
2018-08-31T01:51:10.927Z,15.05
2018-08-31T01:53:40.370Z,14.95
2018-08-31T01:56:09.748Z,14.98
2018-08-31T01:58:39.074Z,14.83
2018-08-31T02:01:08.422Z,14.83
2018-08-31T02:03:37.980Z,14.85
2018-08-31T02:06:07.530Z,14.91
2018-08-31T02:08:41.564Z,14.89
2018-08-31T02:11:10.887Z,14.66
2018-08-31T02:13:40.233Z,14.62
2018-08-31T02:16:10.184Z,14.73
2018-08-31T02:18:39.482Z,14.61
2018-08-31T02:21:08.748Z,14.64
2018-08-31T02:23:38.392Z,14.49
2018-08-31T02:26:07.659Z,14.64
2018-08-31T02:28:36.925Z,14.68
2018-08-31T02:31:06.599Z,14.42
2018-08-31T02:33:36.260Z,14.32
2018-08-31T02:36:05.670Z,14.36
2018-08-31T02:38:35.051Z,14.38
2018-08-31T02:41:05.343Z,14.43
2018-08-31T02:43:34.693Z,14.24
2018-08-31T02:46:04.035Z,14.11
2018-08-31T02:48:33.361Z,14.29
2018-08-31T02:51:02.775Z,14.25
2018-08-31T02:53:32.383Z,14.31
2018-08-31T02:56:01.714Z,14.40
2018-08-31T02:58:31.128Z,14.44
2018-08-31T03:01:00.484Z,14.31
2018-08-31T03:03:29.849Z,14.40
2018-08-31T03:05:59.155Z,14.30
2018-08-31T03:08:28.506Z,14.49
2018-08-31T03:10:57.815Z,14.44
2018-08-31T03:13:27.155Z,14.41
2018-08-31T03:15:56.791Z,14.41
2018-08-31T03:18:26.146Z,14.31
2018-08-31T03:20:57.793Z,14.19
2018-08-31T03:23:27.234Z,14.32
2018-08-31T03:25:56.780Z,14.32
2018-08-31T03:28:26.221Z,14.31
2018-08-31T03:30:55.625Z,14.30
2018-08-31T03:33:24.923Z,14.14
2018-08-31T03:35:54.229Z,14.07
2018-08-31T03:38:23.628Z,14.01
2018-08-31T03:40:52.947Z,13.88
2018-08-31T03:43:22.292Z,13.89
2018-08-31T03:45:51.609Z,14.09
2018-08-31T03:48:20.899Z,14.09
2018-08-31T03:50:50.211Z,14.01
2018-08-31T03:53:19.544Z,14.09
2018-08-31T03:55:48.792Z,14.03
2018-08-31T03:58:18.121Z,13.96
2018-08-31T04:00:47.680Z,13.96
2018-08-31T04:03:16.974Z,13.96
2018-08-31T04:05:46.301Z,14.12
2018-08-31T04:08:15.622Z,14.20
2018-08-31T04:10:44.907Z,14.21
2018-08-31T04:13:14.308Z,14.28
2018-08-31T04:15:43.711Z,14.20
2018-08-31T04:18:13.275Z,14.27
2018-08-31T04:20:42.797Z,14.19
2018-08-31T04:23:12.429Z,14.06
2018-08-31T04:25:41.776Z,13.99
2018-08-31T04:28:11.242Z,13.87
2018-08-31T04:30:40.579Z,13.90
2018-08-31T04:33:09.902Z,13.98
2018-08-31T04:35:39.245Z,13.95
2018-08-31T04:38:08.612Z,13.79
2018-08-31T04:40:37.932Z,13.69
2018-08-31T04:43:07.367Z,13.54
2018-08-31T04:45:37.166Z,13.64
2018-08-31T04:48:06.639Z,13.65
2018-08-31T04:50:35.940Z,13.76
2018-08-31T04:53:05.512Z,13.86
2018-08-31T04:55:34.856Z,13.92
2018-08-31T04:58:04.178Z,13.97
2018-08-31T05:00:33.995Z,13.92
2018-08-31T05:03:03.317Z,13.94
2018-08-31T05:05:32.616Z,14.09
2018-08-31T05:08:02.339Z,14.08
2018-08-31T05:10:31.853Z,14.11
2018-08-31T05:13:01.195Z,14.30
2018-08-31T05:15:30.560Z,14.32
2018-08-31T05:17:59.994Z,14.42
2018-08-31T05:20:29.320Z,14.48
2018-08-31T05:22:58.679Z,14.69
2018-08-31T05:25:28.004Z,14.76
2018-08-31T05:27:57.474Z,14.85
2018-08-31T05:30:26.908Z,14.93
2018-08-31T05:32:56.414Z,14.82
2018-08-31T05:35:25.747Z,14.91
2018-08-31T05:37:55.047Z,15.06
2018-08-31T05:40:24.346Z,15.07
2018-08-31T05:42:53.679Z,15.25
2018-08-31T05:45:23.008Z,15.46
2018-08-31T05:47:52.311Z,15.50
2018-08-31T05:50:21.616Z,15.40
2018-08-31T05:52:51.019Z,15.53
2018-08-31T05:55:20.343Z,15.65
2018-08-31T05:57:49.682Z,15.71
2018-08-31T06:00:19.087Z,15.73
2018-08-31T06:02:48.446Z,15.91
2018-08-31T06:05:17.804Z,15.99
2018-08-31T06:07:47.429Z,16.18
2018-08-31T06:10:16.797Z,16.23
2018-08-31T06:12:46.231Z,16.36
2018-08-31T06:15:16.098Z,16.31
2018-08-31T06:17:45.563Z,16.42
2018-08-31T06:20:14.918Z,16.63
2018-08-31T06:22:44.304Z,16.72
2018-08-31T06:25:13.606Z,16.86
2018-08-31T06:27:43.317Z,16.93
2018-08-31T06:30:12.764Z,16.77
2018-08-31T06:32:42.111Z,16.98
2018-08-31T06:35:11.616Z,17.18
2018-08-31T06:37:41.254Z,17.08
2018-08-31T06:40:10.662Z,17.37
2018-08-31T06:42:40.022Z,17.43
2018-08-31T06:45:09.556Z,17.61
2018-08-31T06:47:39.061Z,17.97
2018-08-31T06:50:08.540Z,18.08
2018-08-31T06:52:37.994Z,18.27
2018-08-31T06:55:07.322Z,18.36
2018-08-31T06:57:36.699Z,18.60
2018-08-31T07:00:07.443Z,18.71
2018-08-31T07:02:36.816Z,19.00
2018-08-31T07:05:07.290Z,19.00
2018-08-31T07:07:37.368Z,19.30
2018-08-31T07:10:06.924Z,19.46
2018-08-31T07:12:36.420Z,19.63
2018-08-31T07:15:07.034Z,20.10
2018-08-31T07:17:36.456Z,20.04
2018-08-31T07:20:06.121Z,19.97
2018-08-31T07:22:36.458Z,20.09
2018-08-31T07:25:05.961Z,20.52
2018-08-31T07:27:35.365Z,20.92
2018-08-31T07:30:04.919Z,20.93
2018-08-31T07:32:34.782Z,21.37
2018-08-31T07:35:04.316Z,21.65
2018-08-31T07:37:33.709Z,22.01
2018-08-31T07:40:03.216Z,21.97
2018-08-31T07:42:32.773Z,22.08
2018-08-31T07:45:02.328Z,22.18
2018-08-31T07:47:31.690Z,22.37
2018-08-31T07:50:01.157Z,22.79
2018-08-31T07:52:30.652Z,23.17
2018-08-31T07:55:00.195Z,23.57
2018-08-31T07:57:29.748Z,24.12
2018-08-31T07:59:59.279Z,24.22
2018-08-31T08:02:29.206Z,24.41
2018-08-31T08:04:58.665Z,24.65
2018-08-31T08:07:28.527Z,24.57
2018-08-31T08:09:57.944Z,24.67
2018-08-31T08:12:27.329Z,24.79
2018-08-31T08:14:56.799Z,24.75
2018-08-31T08:17:26.357Z,24.73
2018-08-31T08:19:55.838Z,24.84
2018-08-31T08:22:25.479Z,25.18
2018-08-31T08:24:54.839Z,25.48
2018-08-31T08:27:24.170Z,26.10
2018-08-31T08:29:53.652Z,26.76
2018-08-31T08:32:23.047Z,27.15
2018-08-31T08:34:52.343Z,27.11
2018-08-31T08:37:21.776Z,26.75
2018-08-31T08:39:51.089Z,27.13
2018-08-31T08:42:20.513Z,27.75
2018-08-31T08:44:49.861Z,27.98
2018-08-31T08:47:19.303Z,28.70
2018-08-31T08:49:48.674Z,29.18
2018-08-31T08:52:18.911Z,29.05
2018-08-31T08:54:48.272Z,28.61
2018-08-31T08:57:17.671Z,29.36
2018-08-31T08:59:47.060Z,29.39
2018-08-31T09:02:16.694Z,29.09
2018-08-31T09:04:46.107Z,28.20
2018-08-31T09:07:17.432Z,28.23
2018-08-31T09:09:47.974Z,28.85
2018-08-31T09:12:20.738Z,30.06
2018-08-31T09:14:50.096Z,29.82
2018-08-31T09:17:19.458Z,28.71
2018-08-31T09:19:48.984Z,28.47
2018-08-31T09:22:18.340Z,28.99
2018-08-31T09:24:47.709Z,30.23
2018-08-31T09:27:17.150Z,31.22
2018-08-31T09:29:46.512Z,31.45
2018-08-31T09:32:21.489Z,31.72
2018-08-31T09:34:52.670Z,31.90
2018-08-31T09:37:22.137Z,32.34
2018-08-31T09:39:51.467Z,33.26
2018-08-31T09:42:20.896Z,32.99
2018-08-31T09:44:50.362Z,33.17
2018-08-31T09:47:19.806Z,34.17
2018-08-31T09:49:49.310Z,33.88
2018-08-31T09:52:19.278Z,34.37
2018-08-31T09:54:48.622Z,34.16
2018-08-31T09:57:18.094Z,34.10
2018-08-31T09:59:47.474Z,33.91
2018-08-31T10:02:22.318Z,31.82
2018-08-31T10:04:51.675Z,30.01
2018-08-31T10:07:21.106Z,29.03
2018-08-31T10:09:50.675Z,30.91
2018-08-31T10:12:20.346Z,30.76
2018-08-31T10:14:49.772Z,31.21
2018-08-31T10:17:24.063Z,31.72
2018-08-31T10:19:53.731Z,31.93
2018-08-31T10:22:23.278Z,32.68
2018-08-31T10:24:52.638Z,33.24
2018-08-31T10:27:22.099Z,32.60
2018-08-31T10:29:51.489Z,32.74
2018-08-31T10:32:21.232Z,32.70
2018-08-31T10:34:50.627Z,32.50
2018-08-31T10:37:19.968Z,33.36
2018-08-31T10:39:49.409Z,34.97
2018-08-31T10:42:18.814Z,34.62
2018-08-31T10:44:48.140Z,34.73
2018-08-31T10:47:17.516Z,34.46
2018-08-31T10:49:46.858Z,32.66
2018-08-31T10:52:16.449Z,31.77
2018-08-31T10:54:46.403Z,32.82
2018-08-31T10:57:15.786Z,32.60
2018-08-31T10:59:45.740Z,31.12
2018-08-31T11:02:15.211Z,30.06
2018-08-31T11:04:44.827Z,30.60
2018-08-31T11:07:14.338Z,30.55
2018-08-31T11:09:44.255Z,31.01
2018-08-31T11:12:13.883Z,32.07
2018-08-31T11:14:43.292Z,32.12
2018-08-31T11:17:12.856Z,31.03
2018-08-31T11:19:42.255Z,30.14
2018-08-31T11:22:11.668Z,29.14
2018-08-31T11:24:41.128Z,28.48
2018-08-31T11:27:10.659Z,27.76
2018-08-31T11:29:40.122Z,28.22
2018-08-31T11:32:09.500Z,28.10
2018-08-31T11:34:38.942Z,27.80
2018-08-31T11:37:08.304Z,28.24
2018-08-31T11:39:38.048Z,28.72
2018-08-31T11:42:07.489Z,29.37
2018-08-31T11:44:36.917Z,30.72
2018-08-31T11:47:06.382Z,31.47
2018-08-31T11:49:35.798Z,32.60
2018-08-31T11:52:05.167Z,33.45
2018-08-31T11:54:35.231Z,34.09
2018-08-31T11:57:04.604Z,34.21
2018-08-31T11:59:33.932Z,33.73
2018-08-31T12:02:04.098Z,33.35
2018-08-31T12:04:33.395Z,32.77
2018-08-31T12:07:02.724Z,32.22
2018-08-31T12:09:32.050Z,31.92
2018-08-31T12:12:04.386Z,31.28
2018-08-31T12:14:33.986Z,30.21
2018-08-31T12:17:03.720Z,30.70
2018-08-31T12:19:33.067Z,31.67
2018-08-31T12:22:02.775Z,31.56
2018-08-31T12:24:32.251Z,31.01
2018-08-31T12:27:01.580Z,30.68
2018-08-31T12:29:30.953Z,31.94
2018-08-31T12:32:00.235Z,32.24
2018-08-31T12:34:29.588Z,32.88
2018-08-31T12:36:58.944Z,32.65
2018-08-31T12:39:28.365Z,32.00
2018-08-31T12:41:57.715Z,31.77
2018-08-31T12:44:27.498Z,30.76
2018-08-31T12:46:56.764Z,29.57
2018-08-31T12:49:26.063Z,29.20
2018-08-31T12:51:55.437Z,29.19
2018-08-31T12:54:24.764Z,28.96
2018-08-31T12:56:54.175Z,30.35
2018-08-31T12:59:23.618Z,31.37
2018-08-31T13:01:52.952Z,32.00
2018-08-31T13:04:22.297Z,31.80
2018-08-31T13:06:52.074Z,32.51
2018-08-31T13:09:21.482Z,32.63
2018-08-31T13:11:50.807Z,31.81
2018-08-31T13:14:20.167Z,31.32
2018-08-31T13:16:49.459Z,31.41
2018-08-31T13:19:18.791Z,31.42
2018-08-31T13:21:48.178Z,31.48
2018-08-31T13:24:17.762Z,30.79
2018-08-31T13:26:47.171Z,30.58
2018-08-31T13:29:17.028Z,30.57
2018-08-31T13:31:46.436Z,30.51
2018-08-31T13:34:15.854Z,30.24
2018-08-31T13:36:45.222Z,29.75
2018-08-31T13:39:14.562Z,29.34
2018-08-31T13:41:43.839Z,29.17
2018-08-31T13:44:13.182Z,29.07
2018-08-31T13:46:42.672Z,29.04
2018-08-31T13:49:12.191Z,28.59
2018-08-31T13:51:41.820Z,28.60
2018-08-31T13:54:11.274Z,28.57
2018-08-31T13:56:40.678Z,28.63
2018-08-31T13:59:10.087Z,28.70
2018-08-31T14:01:39.454Z,28.73
2018-08-31T14:04:08.782Z,28.71
2018-08-31T14:06:38.147Z,28.78
2018-08-31T14:09:08.258Z,28.42
2018-08-31T14:11:37.623Z,28.12
2018-08-31T14:14:07.324Z,28.50
2018-08-31T14:16:37.361Z,28.29
2018-08-31T14:19:08.625Z,28.08
2018-08-31T14:21:38.342Z,28.16
2018-08-31T14:24:08.367Z,28.21
2018-08-31T14:26:37.779Z,28.44
2018-08-31T14:29:07.223Z,27.89
2018-08-31T14:31:36.594Z,28.14
2018-08-31T14:34:06.442Z,27.99
2018-08-31T14:36:35.900Z,27.88
2018-08-31T14:39:07.871Z,27.83
2018-08-31T14:41:37.443Z,27.43
2018-08-31T14:44:08.680Z,27.42
2018-08-31T14:46:37.838Z,27.41
2018-08-31T14:49:08.227Z,27.74
2018-08-31T14:51:37.656Z,27.66
2018-08-31T14:54:07.153Z,27.66
2018-08-31T14:56:36.556Z,27.69
2018-08-31T14:59:05.921Z,27.49
2018-08-31T15:01:35.311Z,27.44
2018-08-31T15:04:04.776Z,27.30
2018-08-31T15:06:34.181Z,27.43
2018-08-31T15:09:03.737Z,27.55
2018-08-31T15:11:33.052Z,27.39
2018-08-31T15:14:02.416Z,27.43
2018-08-31T15:16:32.479Z,27.25
2018-08-31T15:19:02.181Z,27.25
2018-08-31T15:21:31.646Z,27.02
2018-08-31T15:24:01.245Z,27.19
2018-08-31T15:26:30.582Z,26.82
2018-08-31T15:28:59.952Z,26.71
2018-08-31T15:31:29.393Z,26.60
2018-08-31T15:33:58.714Z,26.42
2018-08-31T15:36:28.018Z,26.48
2018-08-31T15:38:57.851Z,26.61
2018-08-31T15:41:27.270Z,26.19
2018-08-31T15:43:57.720Z,26.41
2018-08-31T15:46:27.374Z,26.36
2018-08-31T15:48:56.871Z,26.48
2018-08-31T15:51:26.390Z,26.26
2018-08-31T15:53:56.710Z,26.01
2018-08-31T15:56:26.349Z,26.00
2018-08-31T15:58:56.701Z,25.93
2018-08-31T16:01:26.460Z,25.69
2018-08-31T16:03:55.991Z,25.67
2018-08-31T16:06:25.290Z,25.47
2018-08-31T16:08:54.660Z,25.58
2018-08-31T16:11:24.233Z,25.30
2018-08-31T16:13:53.653Z,25.18
2018-08-31T16:16:23.127Z,25.03
2018-08-31T16:18:52.601Z,24.91
2018-08-31T16:21:22.006Z,24.85
2018-08-31T16:23:51.719Z,24.84
2018-08-31T16:26:21.100Z,24.79
2018-08-31T16:28:50.586Z,24.79
2018-08-31T16:31:20.268Z,24.74
2018-08-31T16:33:49.880Z,24.80
2018-08-31T16:36:19.249Z,24.63
2018-08-31T16:38:48.655Z,24.66
2018-08-31T16:41:17.960Z,24.57
2018-08-31T16:43:47.387Z,24.43
2018-08-31T16:46:17.102Z,24.47
2018-08-31T16:48:46.711Z,24.58
2018-08-31T16:51:16.120Z,24.37
2018-08-31T16:53:45.848Z,23.94
2018-08-31T16:56:15.314Z,23.74
2018-08-31T16:58:44.716Z,23.73
2018-08-31T17:01:14.194Z,23.87
2018-08-31T17:03:43.547Z,23.64
2018-08-31T17:06:13.251Z,23.64
2018-08-31T17:08:43.140Z,23.30
2018-08-31T17:11:12.570Z,23.23
2018-08-31T17:13:41.910Z,23.08
2018-08-31T17:16:11.439Z,22.97
2018-08-31T17:18:40.783Z,22.85
2018-08-31T17:21:10.142Z,22.68
2018-08-31T17:23:39.554Z,22.68
2018-08-31T17:26:13.198Z,22.82
2018-08-31T17:28:48.164Z,22.78
2018-08-31T17:31:22.752Z,22.50
2018-08-31T17:33:57.476Z,22.45
2018-08-31T17:36:32.032Z,22.45
2018-08-31T17:39:01.428Z,22.64
2018-08-31T17:41:30.939Z,22.67
2018-08-31T17:44:00.412Z,22.55
2018-08-31T17:46:30.818Z,22.45
2018-08-31T17:49:00.174Z,22.40
2018-08-31T17:51:30.818Z,22.41
2018-08-31T17:54:00.368Z,22.19
2018-08-31T17:56:30.015Z,22.04
2018-08-31T17:58:59.343Z,22.03
2018-08-31T18:01:28.855Z,21.93
2018-08-31T18:03:58.322Z,21.86
2018-08-31T18:06:29.118Z,21.73
2018-08-31T18:08:58.559Z,21.67
2018-08-31T18:11:28.819Z,21.69
2018-08-31T18:13:58.210Z,21.54
2018-08-31T18:16:28.726Z,21.51
2018-08-31T18:18:58.180Z,21.26
2018-08-31T18:21:31.406Z,21.42
2018-08-31T18:24:00.885Z,21.33
2018-08-31T18:26:30.234Z,21.34
2018-08-31T18:28:59.580Z,21.18
2018-08-31T18:31:29.051Z,21.06
2018-08-31T18:33:58.408Z,20.96
2018-08-31T18:36:27.932Z,20.95
2018-08-31T18:38:57.630Z,21.06
2018-08-31T18:41:27.276Z,20.88
2018-08-31T18:43:56.919Z,20.76
2018-08-31T18:46:26.553Z,20.66
2018-08-31T18:48:56.036Z,20.61
2018-08-31T18:51:25.686Z,20.39
2018-08-31T18:53:55.125Z,20.44
2018-08-31T18:56:24.542Z,20.47
2018-08-31T18:58:54.171Z,20.30
2018-08-31T19:01:24.499Z,20.31
2018-08-31T19:03:54.013Z,20.16
2018-08-31T19:06:23.624Z,20.22
2018-08-31T19:08:53.238Z,20.02
2018-08-31T19:11:22.752Z,19.93
2018-08-31T19:13:52.257Z,20.04
2018-08-31T19:16:21.750Z,19.96
2018-08-31T19:18:51.760Z,19.87
2018-08-31T19:21:21.288Z,19.89
2018-08-31T19:23:50.834Z,19.86
2018-08-31T19:26:20.289Z,19.74
2018-08-31T19:28:51.027Z,19.80
2018-08-31T19:31:20.581Z,19.60
2018-08-31T19:33:50.984Z,19.56
2018-08-31T19:36:20.813Z,19.71
2018-08-31T19:38:50.478Z,19.76
2018-08-31T19:41:20.032Z,19.75
2018-08-31T19:43:49.637Z,19.66
2018-08-31T19:46:19.213Z,19.51
2018-08-31T19:48:48.834Z,19.51
2018-08-31T19:51:18.461Z,19.44
2018-08-31T19:53:47.945Z,19.33
2018-08-31T19:56:17.316Z,19.35
2018-08-31T19:58:46.900Z,19.13
2018-08-31T20:01:16.395Z,19.20
2018-08-31T20:03:46.337Z,19.23
2018-08-31T20:06:15.883Z,19.31
2018-08-31T20:08:45.536Z,19.36
2018-08-31T20:11:14.984Z,19.32
2018-08-31T20:13:44.915Z,19.31
2018-08-31T20:16:14.406Z,19.35
2018-08-31T20:18:43.814Z,19.13
2018-08-31T20:21:13.425Z,19.18
2018-08-31T20:23:42.996Z,19.10
2018-08-31T20:26:12.381Z,19.21
2018-08-31T20:28:41.875Z,19.19
2018-08-31T20:31:11.451Z,19.39
2018-08-31T20:33:41.023Z,19.38
2018-08-31T20:36:10.993Z,19.35
2018-08-31T20:38:40.603Z,19.39
2018-08-31T20:41:10.000Z,19.46
2018-08-31T20:43:39.742Z,19.35
2018-08-31T20:46:09.157Z,19.26
2018-08-31T20:48:38.798Z,19.43
2018-08-31T20:51:08.271Z,19.19
2018-08-31T20:53:37.765Z,19.18
2018-08-31T20:56:07.259Z,19.30
2018-08-31T20:58:36.909Z,19.41
2018-08-31T21:01:06.354Z,19.19
2018-08-31T21:03:36.060Z,19.15
2018-08-31T21:06:05.575Z,19.30
2018-08-31T21:08:35.010Z,19.28
2018-08-31T21:11:04.372Z,19.31
2018-08-31T21:13:33.811Z,19.29
2018-08-31T21:16:03.335Z,19.36
2018-08-31T21:18:32.680Z,19.35
2018-08-31T21:21:02.294Z,19.23
2018-08-31T21:23:31.609Z,19.21
2018-08-31T21:26:00.895Z,19.25
2018-08-31T21:28:30.223Z,19.20
2018-08-31T21:30:59.575Z,18.91
2018-08-31T21:33:28.965Z,18.98
2018-08-31T21:35:58.347Z,19.06
2018-08-31T21:38:27.729Z,18.96
2018-08-31T21:40:57.200Z,18.97
2018-08-31T21:43:27.130Z,18.98
2018-08-31T21:45:56.584Z,18.92
2018-08-31T21:48:25.961Z,18.80
2018-08-31T21:50:55.398Z,18.83
2018-08-31T21:53:24.870Z,18.92
2018-08-31T21:55:54.331Z,18.80
2018-08-31T21:58:23.878Z,18.79
2018-08-31T22:00:57.440Z,18.66
2018-08-31T22:03:27.244Z,18.76
2018-08-31T22:05:56.851Z,18.75
2018-08-31T22:08:26.323Z,18.66
2018-08-31T22:10:55.733Z,18.55
2018-08-31T22:13:25.204Z,18.52
2018-08-31T22:15:55.870Z,18.01
2018-08-31T22:18:25.363Z,18.00
2018-08-31T22:20:54.769Z,18.07
2018-08-31T22:23:24.318Z,18.12
2018-08-31T22:25:55.892Z,18.28
2018-08-31T22:28:26.323Z,18.24
2018-08-31T22:30:56.424Z,18.27
2018-08-31T22:33:26.103Z,18.38
2018-08-31T22:35:55.987Z,18.29
2018-08-31T22:38:25.334Z,18.09
2018-08-31T22:40:54.870Z,18.10
2018-08-31T22:43:30.605Z,18.03
2018-08-31T22:46:00.086Z,18.00
2018-08-31T22:48:29.467Z,18.01
2018-08-31T22:50:59.765Z,18.18
2018-08-31T22:53:29.267Z,17.87
2018-08-31T22:55:59.416Z,17.87
2018-08-31T22:58:29.109Z,17.86
2018-08-31T23:00:58.960Z,17.89
2018-08-31T23:03:28.706Z,17.87
2018-08-31T23:05:58.587Z,17.87
2018-08-31T23:08:27.990Z,17.85
2018-08-31T23:10:57.321Z,17.68
2018-08-31T23:13:26.692Z,17.64
2018-08-31T23:15:56.095Z,17.62
2018-08-31T23:18:25.431Z,17.65
2018-08-31T23:20:54.793Z,17.58
2018-08-31T23:23:33.206Z,17.57
2018-08-31T23:26:02.859Z,17.51
2018-08-31T23:28:32.256Z,17.60
2018-08-31T23:31:01.900Z,17.57
2018-08-31T23:33:31.366Z,17.61
2018-08-31T23:36:00.744Z,17.42
2018-08-31T23:38:30.107Z,17.31
2018-08-31T23:40:59.501Z,17.35
2018-08-31T23:43:28.940Z,17.42
2018-08-31T23:45:58.463Z,17.22
2018-08-31T23:48:28.058Z,17.16
2018-08-31T23:50:57.414Z,17.17
2018-08-31T23:53:26.849Z,17.03
2018-08-31T23:55:56.337Z,16.84
2018-08-31T23:58:25.664Z,16.86
